Lucca, North Dakota
Current Conditions -  °F | °C
As of 7:55 AM on Friday 24 Oct 2014 (Local Time) from KGWR Reporting Station
Clear Clear  
Wind Chill: 38°   Ceiling: Unl
Heat Index: 45°   Visibility: 10mi
Dew Point: 45°   Wind: 13mph
Humidity: 100%   Direction: 230°SW
Pressure: 29.82"   Gusts: NA
Location:  46.5866°N, 97.6237°W
Report Text: KGWR 241255Z AUTO 23011KT 10SM CLR 07/07 A2982 RMK A01 P000
Loading
Personal Weather Stations






























Interactive Weather Map
Tropical Storm Tracking
New forecast layout! Learn more

10-Day Weather Forecast

Advertisements
Track Severe Weather on mobile